Time;durP1;ratioP1;P1;durP2;ratioP2;P2;SDS_P1;SDS_P2;PMS_P1;PMS_P2;Temp;Humidity;BMP_temperature;BMP_pressure;BME280_temperature;BME280_humidity;BME280_pressure;Samples;Min_cycle;Max_cycle;Signal;HPM_P1;HPM_P2
2023/01/06 00:04:56;;;;;;;3.25;0.80;;;;;;;19.38;45.69;101798.69;16118228;19;129644;-49
2023/01/06 00:10:18;;;;;;;5.00;0.80;;;;;;;19.33;45.75;101781.88;16117884;19;129500;-48
2023/01/06 00:15:39;;;;;;;1.70;0.70;;;;;;;19.31;45.80;101775.75;16116088;19;129642;-48
2023/01/06 00:21:02;;;;;;;4.00;0.60;;;;;;;19.28;45.90;101770.66;16116888;19;129465;-46
2023/01/06 00:26:24;;;;;;;1.60;0.50;;;;;;;19.25;46.11;101759.16;16114937;19;130198;-46
2023/01/06 00:31:45;;;;;;;1.20;0.50;;;;;;;19.24;45.83;101760.25;16116717;19;130594;-47
2023/01/06 00:37:07;;;;;;;2.50;0.52;;;;;;;19.21;45.83;101756.84;16117183;19;129974;-47
2023/01/06 00:42:29;;;;;;;2.38;0.63;;;;;;;19.19;46.30;101758.13;16116805;19;129388;-45
2023/01/06 00:47:51;;;;;;;1.80;0.50;;;;;;;19.18;45.89;101764.75;16120266;19;129576;-48
2023/01/06 00:53:12;;;;;;;1.45;0.50;;;;;;;19.15;46.09;101762.44;16119911;19;129336;-46
2023/01/06 00:58:34;;;;;;;1.63;0.47;;;;;;;19.14;46.36;101760.72;16115489;19;129851;-45
2023/01/06 01:03:56;;;;;;;1.98;0.43;;;;;;;19.12;46.43;101746.25;16117293;19;129782;-47
2023/01/06 01:09:22;;;;;;;0.70;0.30;;;;;;;19.10;46.45;101740.06;16119589;19;129959;-48
2023/01/06 01:14:51;;;;;;;2.58;0.73;;;;;;;19.08;46.29;101741.16;16119080;19;135522;-48
2023/01/06 01:20:13;;;;;;;3.15;0.40;;;;;;;19.05;46.09;101736.09;16117689;19;129787;-47
2023/01/06 01:25:35;;;;;;;1.13;0.35;;;;;;;19.04;46.56;101736.28;16114971;19;129151;-46
2023/01/06 01:31:01;;;;;;;1.48;0.30;;;;;;;19.02;46.26;101722.66;16118157;19;129708;-48
2023/01/06 01:36:23;;;;;;;1.15;0.40;;;;;;;19.00;46.50;101730.38;16129767;19;134909;-46
2023/01/06 01:41:46;;;;;;;0.80;0.32;;;;;;;18.98;46.43;101715.88;16132827;19;129096;-48
2023/01/06 01:47:10;;;;;;;1.55;0.38;;;;;;;18.97;46.61;101725.25;16130260;19;129559;-49
2023/01/06 01:52:33;;;;;;;1.30;0.35;;;;;;;18.95;46.45;101721.91;16128965;19;129809;-47
2023/01/06 01:58:03;;;;;;;1.88;0.40;;;;;;;18.95;46.29;101712.72;16131406;19;130085;-45
2023/01/06 02:03:25;;;;;;;2.63;0.30;;;;;;;18.92;46.49;101711.25;16127943;19;129339;-55
2023/01/06 02:08:55;;;;;;;1.00;0.40;;;;;;;18.92;46.66;101705.72;16131113;19;129083;-45
2023/01/06 02:14:22;;;;;;;1.98;0.38;;;;;;;18.89;46.67;101701.47;16128128;19;130135;-46
2023/01/06 02:20:15;;;;;;;2.38;0.40;;;;;;;18.89;46.91;101700.63;16129441;19;131016;-51
2023/01/06 02:26:14;;;;;;;1.73;0.60;;;;;;;18.86;46.41;101687.22;16126398;19;130044;-47
2023/01/06 02:32:13;;;;;;;1.08;0.50;;;;;;;18.84;46.68;101681.91;16125307;19;129303;-48
2023/01/06 02:37:38;;;;;;;1.15;0.45;;;;;;;18.81;46.64;101671.28;16128317;19;130360;-48
2023/01/06 02:43:12;;;;;;;1.10;0.35;;;;;;;18.80;46.69;101657.66;16127549;19;129516;-46
2023/01/06 02:48:54;;;;;;;0.60;0.28;;;;;;;18.81;46.80;101653.81;16125884;19;129723;-48
2023/01/06 02:54:30;;;;;;;1.13;0.30;;;;;;;18.79;46.62;101651.25;16125067;19;129378;-45
2023/01/06 03:00:01;;;;;;;0.73;0.30;;;;;;;18.76;46.54;101663.66;16127508;19;129597;-48
2023/01/06 03:05:26;;;;;;;0.95;0.40;;;;;;;18.75;46.48;101653.63;16127240;19;129466;-49
2023/01/06 03:10:49;;;;;;;0.80;0.43;;;;;;;18.73;46.88;101658.56;16134936;19;129562;-52
2023/01/06 03:16:13;;;;;;;0.50;0.20;;;;;;;18.73;46.95;101655.78;16128355;19;130600;-45
2023/01/06 03:21:39;;;;;;;0.60;0.20;;;;;;;18.73;46.53;101657.72;16126601;19;129461;-47
2023/01/06 03:27:02;;;;;;;0.52;0.30;;;;;;;18.71;46.58;101641.28;16128312;19;129858;-47
2023/01/06 03:32:28;;;;;;;1.17;0.25;;;;;;;18.72;46.46;101640.22;16125635;19;134454;-48
2023/01/06 03:38:38;;;;;;;1.33;0.35;;;;;;;18.68;46.71;101627.91;16125902;19;130289;-51
2023/01/06 03:44:17;;;;;;;0.60;0.30;;;;;;;18.69;46.62;101635.16;16116409;19;129508;-46
2023/01/06 03:49:52;;;;;;;0.88;0.40;;;;;;;18.66;46.71;101613.44;16114792;19;129951;-47
2023/01/06 03:55:19;;;;;;;0.60;0.30;;;;;;;18.65;46.58;101613.66;16112800;19;129606;-46
2023/01/06 04:00:41;;;;;;;0.60;0.25;;;;;;;18.64;46.59;101593.41;16115867;19;130845;-47
2023/01/06 04:06:03;;;;;;;0.73;0.22;;;;;;;18.62;46.66;101584.47;16116114;19;129639;-45
2023/01/06 04:17:06;;;;;;;0.63;0.20;;;;;;;18.58;46.42;101584.09;16119494;19;129425;-46
2023/01/06 04:22:27;;;;;;;1.60;0.40;;;;;;;18.58;46.58;101591.59;16124042;19;130296;-51
2023/01/06 04:27:49;;;;;;;0.80;0.20;;;;;;;18.58;46.40;101588.81;16124125;19;130809;-47
2023/01/06 04:33:11;;;;;;;0.95;0.30;;;;;;;18.56;46.13;101577.94;16123963;19;129364;-49
2023/01/06 04:38:33;;;;;;;0.30;0.15;;;;;;;18.55;46.38;101570.69;16123525;19;129208;-47
2023/01/06 04:43:54;;;;;;;0.22;0.10;;;;;;;18.55;46.22;101572.63;16125400;19;129758;-51
2023/01/06 04:49:18;;;;;;;0.32;0.20;;;;;;;18.53;46.31;101569.25;16121921;19;129499;-49
2023/01/06 04:54:40;;;;;;;0.28;0.20;;;;;;;18.54;46.00;101554.31;16123606;19;129699;-49
2023/01/06 05:00:03;;;;;;;0.35;0.20;;;;;;;18.52;46.25;101553.69;16124254;19;129201;-47
2023/01/06 05:05:25;;;;;;;0.30;0.20;;;;;;;18.51;46.09;101547.31;16125447;19;130004;-49
2023/01/06 05:10:46;;;;;;;0.90;0.25;;;;;;;18.50;45.94;101551.16;16138081;19;130007;-51
2023/01/06 05:16:16;;;;;;;1.15;0.17;;;;;;;18.51;46.22;101554.78;16138433;19;129615;-46
2023/01/06 05:21:38;;;;;;;0.50;0.20;;;;;;;18.50;45.84;101567.78;16140460;19;129340;-47
2023/01/06 05:27:00;;;;;;;0.73;0.22;;;;;;;18.49;45.80;101565.22;16138301;19;129440;-49
2023/01/06 05:32:22;;;;;;;0.43;0.10;;;;;;;18.49;46.01;101554.16;16135673;19;129781;-48
2023/01/06 05:37:44;;;;;;;0.43;0.20;;;;;;;18.48;46.16;101563.53;16140072;19;129029;-48
2023/01/06 05:43:06;;;;;;;0.40;0.20;;;;;;;18.48;46.17;101564.41;16137838;19;129981;-49
2023/01/06 05:48:28;;;;;;;1.02;0.20;;;;;;;18.44;46.08;101555.72;16135839;19;129577;-47
2023/01/06 05:53:50;;;;;;;0.70;0.15;;;;;;;18.44;45.93;101550.16;16134868;19;129524;-46
2023/01/06 05:59:12;;;;;;;1.35;0.30;;;;;;;18.43;45.90;101539.28;16134584;19;130112;-47
2023/01/06 06:04:33;;;;;;;2.08;0.20;;;;;;;18.43;45.85;101542.94;16131475;19;129305;-45
2023/01/06 06:09:55;;;;;;;0.38;0.10;;;;;;;18.55;45.94;101525.53;16130844;19;130263;-47
2023/01/06 06:15:18;;;;;;;0.98;0.28;;;;;;;18.87;45.07;101536.44;16130480;19;129639;-48
2023/01/06 06:20:39;;;;;;;0.43;0.10;;;;;;;19.30;44.55;101532.69;16130434;19;129415;-46
2023/01/06 06:26:01;;;;;;;0.82;0.20;;;;;;;19.72;44.25;101539.28;16130544;19;129814;-48
2023/01/06 06:31:26;;;;;;;0.22;0.03;;;;;;;19.99;43.79;101540.56;16129846;19;129621;-48
2023/01/06 06:36:48;;;;;;;0.10;0.10;;;;;;;20.14;43.58;101551.19;16132646;19;129422;-47
2023/01/06 06:42:10;;;;;;;0.55;0.13;;;;;;;20.19;43.27;101564.34;16130839;19;129605;-46
2023/01/06 06:47:32;;;;;;;0.65;0.13;;;;;;;20.15;43.29;101552.03;16128321;19;130726;-48
2023/01/06 06:52:54;;;;;;;0.35;0.10;;;;;;;20.10;43.43;101576.91;16129509;19;129714;-48
2023/01/06 06:58:16;;;;;;;0.20;0.17;;;;;;;20.03;43.25;101560.34;16127020;19;129146;-49
2023/01/06 07:03:38;;;;;;;1.05;0.15;;;;;;;19.92;43.52;101570.34;16127122;19;129587;-46
2023/01/06 07:09:00;;;;;;;0.30;0.20;;;;;;;19.82;43.38;101570.06;16127959;19;129551;-49
2023/01/06 07:14:22;;;;;;;0.40;0.20;;;;;;;19.74;43.85;101570.44;16124447;19;130010;-46
2023/01/06 07:19:44;;;;;;;0.57;0.10;;;;;;;19.64;43.69;101580.19;16126297;19;129602;-52
2023/01/06 07:25:07;;;;;;;0.38;0.00;;;;;;;19.54;43.72;101585.47;16126571;19;130209;-45
2023/01/06 07:30:30;;;;;;;0.28;0.10;;;;;;;19.44;43.72;101586.03;16126384;19;129364;-49
2023/01/06 07:35:53;;;;;;;0.10;0.10;;;;;;;19.38;43.82;101587.81;16127707;19;129893;-48
2023/01/06 07:41:15;;;;;;;0.10;0.10;;;;;;;19.36;44.10;101601.09;16122045;19;129649;-51
2023/01/06 07:46:37;;;;;;;2.53;0.30;;;;;;;19.37;43.89;101608.31;16121970;19;129450;-46
2023/01/06 07:51:59;;;;;;;3.58;0.40;;;;;;;19.37;43.43;101624.97;16122502;19;130957;-47
2023/01/06 07:57:21;;;;;;;2.75;0.30;;;;;;;19.40;43.50;101628.38;16124178;19;130082;-47
2023/01/06 08:02:42;;;;;;;1.90;0.30;;;;;;;19.45;43.34;101623.81;16122689;19;129418;-45
2023/01/06 08:08:04;;;;;;;1.98;0.28;;;;;;;19.52;43.07;101637.59;16122636;19;129262;-46
2023/01/06 08:13:26;;;;;;;4.00;0.22;;;;;;;19.66;42.76;101630.78;16122674;19;129791;-45
2023/01/06 08:18:48;;;;;;;2.92;0.43;;;;;;;19.77;42.86;101639.38;16121901;19;129542;-47
2023/01/06 08:24:09;;;;;;;4.45;0.40;;;;;;;19.78;43.25;101650.22;16121441;19;129719;-45
2023/01/06 08:29:31;;;;;;;3.28;0.40;;;;;;;19.76;43.24;101662.66;16120787;19;129279;-49
2023/01/06 08:34:53;;;;;;;5.13;0.40;;;;;;;19.71;43.39;101662.50;16118906;19;129476;-49
2023/01/06 08:40:15;;;;;;;1.98;0.40;;;;;;;19.64;43.51;101668.16;16124682;19;129801;-46
2023/01/06 08:45:38;;;;;;;3.85;0.30;;;;;;;19.58;43.46;101681.03;16137926;19;129495;-49
2023/01/06 08:51:05;;;;;;;1.30;0.30;;;;;;;19.53;43.50;101673.41;16131589;19;131326;-46
2023/01/06 08:56:30;;;;;;;5.88;0.40;;;;;;;19.46;43.91;101681.00;16135094;19;130300;-49
2023/01/06 09:01:52;;;;;;;0.80;0.30;;;;;;;19.40;43.78;101683.84;16136099;19;129787;-49
2023/01/06 09:07:13;;;;;;;4.72;0.38;;;;;;;19.35;44.07;101693.72;16136350;19;130368;-46
2023/01/06 09:12:35;;;;;;;1.27;0.43;;;;;;;19.30;44.19;101707.47;16133389;19;129561;-48
2023/01/06 09:17:57;;;;;;;0.98;0.25;;;;;;;19.25;44.16;101710.06;16133734;19;129310;-47
2023/01/06 09:23:20;;;;;;;2.05;0.30;;;;;;;19.22;44.28;101713.28;16132275;19;130386;-48
2023/01/06 09:28:43;;;;;;;2.47;0.63;;;;;;;19.17;44.12;101727.84;16132558;19;129520;-51
2023/01/06 09:34:04;;;;;;;6.82;0.45;;;;;;;19.17;43.98;101718.69;16128877;19;129194;-46
2023/01/06 09:39:26;;;;;;;12.43;0.93;;;;;;;19.13;44.26;101717.44;16130681;19;131217;-50
2023/01/06 09:45:05;;;;;;;3.38;0.40;;;;;;;19.10;44.16;101724.28;16132797;19;129397;-47
2023/01/06 09:50:49;;;;;;;7.57;0.82;;;;;;;19.07;44.04;101736.72;16130222;19;129687;-47
2023/01/06 09:56:16;;;;;;;11.75;0.55;;;;;;;19.06;44.15;101746.09;16128519;19;129910;-51
2023/01/06 10:01:46;;;;;;;9.40;0.73;;;;;;;19.10;43.85;101748.38;16128615;19;129968;-47
2023/01/06 10:07:22;;;;;;;5.13;0.68;;;;;;;19.06;43.15;101746.09;16131145;19;130340;-50
2023/01/06 10:13:24;;;;;;;3.70;0.98;;;;;;;18.99;42.04;101739.75;16130795;19;133261;-46
2023/01/06 10:18:59;;;;;;;2.05;0.80;;;;;;;18.93;41.88;101754.56;16127440;19;129938;-46
2023/01/06 10:24:36;;;;;;;3.03;0.90;;;;;;;18.83;41.73;101757.00;16126386;19;129961;-47
2023/01/06 10:30:00;;;;;;;3.13;0.80;;;;;;;18.72;41.72;101753.88;16127153;19;130012;-45
2023/01/06 10:35:25;;;;;;;7.50;1.30;;;;;;;18.73;41.96;101763.88;16128878;19;129098;-46
2023/01/06 10:40:47;;;;;;;8.10;1.33;;;;;;;18.75;42.08;101761.75;16127058;19;129122;-48
2023/01/06 10:46:09;;;;;;;11.82;1.70;;;;;;;18.82;41.88;101749.75;16129418;19;133717;-46
2023/01/06 10:51:40;;;;;;;11.20;1.42;;;;;;;18.88;41.97;101737.75;16124582;19;130262;-46
2023/01/06 10:57:05;;;;;;;10.77;1.98;;;;;;;18.97;41.59;101747.44;16125903;19;129978;-46
2023/01/06 11:02:27;;;;;;;14.05;1.40;;;;;;;19.01;41.85;101742.31;16124961;19;129598;-46
2023/01/06 11:07:55;;;;;;;17.05;1.83;;;;;;;19.09;41.79;101747.56;16125224;19;130602;-48
2023/01/06 11:13:26;;;;;;;16.77;2.55;;;;;;;19.19;41.91;101733.16;16127091;19;130482;-47
2023/01/06 11:18:54;;;;;;;10.85;2.55;;;;;;;19.29;41.99;101740.97;16126935;19;129590;-46
2023/01/06 11:24:22;;;;;;;10.40;2.47;;;;;;;19.34;42.20;101741.13;16127454;19;129519;-46
2023/01/06 11:29:45;;;;;;;6.00;2.05;;;;;;;19.35;41.87;101738.13;16125272;19;130602;-48
2023/01/06 11:35:17;;;;;;;19.98;2.58;;;;;;;19.35;41.80;101737.28;16123645;19;130497;-48
2023/01/06 11:40:42;;;;;;;15.07;2.15;;;;;;;19.35;42.26;101740.06;16123508;19;130525;-47
2023/01/06 11:46:07;;;;;;;8.67;2.33;;;;;;;19.33;42.13;101739.44;16126635;19;133845;-47
2023/01/06 11:51:43;;;;;;;15.55;2.28;;;;;;;19.38;42.49;101734.88;16119170;19;130611;-48
2023/01/06 11:57:27;;;;;;;8.02;1.83;;;;;;;19.38;42.55;101732.09;16117087;19;130022;-47
2023/01/06 12:03:14;;;;;;;16.25;2.88;;;;;;;19.34;42.44;101721.72;16119593;19;129870;-53
2023/01/06 12:08:54;;;;;;;18.17;2.00;;;;;;;19.33;42.75;101720.00;16118302;19;129553;-47
2023/01/06 12:14:21;;;;;;;9.80;2.33;;;;;;;19.28;42.54;101706.84;16117706;19;129837;-53
2023/01/06 12:20:01;;;;;;;8.88;1.67;;;;;;;19.27;42.49;101705.13;16118216;19;130089;-54
2023/01/06 12:25:23;;;;;;;7.80;1.70;;;;;;;19.22;42.56;101697.53;16117186;19;129536;-45
2023/01/06 12:30:49;;;;;;;10.00;1.98;;;;;;;19.19;42.99;101694.34;16114941;19;130825;-49
2023/01/06 12:36:49;;;;;;;11.57;1.83;;;;;;;19.17;43.06;101683.44;16117227;19;130944;-48
2023/01/06 12:42:32;;;;;;;8.63;1.42;;;;;;;19.13;42.67;101690.56;16100019;19;130188;-45
2023/01/06 12:47:56;;;;;;;4.85;1.25;;;;;;;19.10;42.96;101698.47;16118717;19;130670;-43
2023/01/06 12:53:34;;;;;;;6.32;1.02;;;;;;;19.08;42.91;101695.94;16115986;19;129627;-44
2023/01/06 12:59:14;;;;;;;10.23;1.50;;;;;;;19.07;43.22;101692.34;16110873;19;129302;-47
2023/01/06 13:04:53;;;;;;;11.00;1.40;;;;;;;19.15;43.08;101704.19;16093292;19;130428;-45
2023/01/06 13:10:29;;;;;;;6.05;1.00;;;;;;;19.19;43.22;101695.16;16116752;19;129566;-48
2023/01/06 13:15:53;;;;;;;6.22;0.90;;;;;;;19.22;42.79;101694.75;16115340;19;130066;-48
2023/01/06 13:21:21;;;;;;;3.08;0.98;;;;;;;19.28;43.02;101692.97;16114296;19;130092;-46
2023/01/06 13:26:52;;;;;;;4.55;0.93;;;;;;;19.31;42.76;101692.50;16114546;19;129693;-45
2023/01/06 13:32:19;;;;;;;6.80;1.20;;;;;;;19.31;43.06;101698.06;16127737;19;131253;-44
2023/01/06 13:37:50;;;;;;;7.75;0.93;;;;;;;19.35;42.96;101690.94;16131161;19;129290;-46
2023/01/06 13:43:26;;;;;;;7.40;1.00;;;;;;;19.35;42.54;101690.13;16129781;19;129619;-43
2023/01/06 13:48:52;;;;;;;7.37;0.70;;;;;;;19.33;42.48;101697.81;16130030;19;129843;-44
2023/01/06 13:54:38;;;;;;;7.47;1.30;;;;;;;19.29;43.02;101694.66;16129784;19;130387;-48
2023/01/06 14:00:03;;;;;;;4.63;0.70;;;;;;;19.25;42.92;101685.09;16128725;19;130877;-44
2023/01/06 14:05:26;;;;;;;1.60;0.57;;;;;;;19.21;43.18;101692.19;16129345;19;130437;-44
2023/01/06 14:10:57;;;;;;;12.10;0.98;;;;;;;19.18;43.00;101690.69;16129386;19;129702;-43
2023/01/06 14:16:19;;;;;;;4.60;0.75;;;;;;;19.14;43.30;101686.69;16128681;19;129315;-45
2023/01/06 14:21:42;;;;;;;7.00;0.82;;;;;;;19.11;42.88;101681.63;16130842;19;129724;-44
2023/01/06 14:27:07;;;;;;;1.65;0.60;;;;;;;19.11;42.81;101697.41;16130221;19;129603;-44
2023/01/06 14:32:28;;;;;;;6.50;0.93;;;;;;;19.06;43.23;101679.53;16125690;19;129884;-46
2023/01/06 14:37:56;;;;;;;7.03;0.52;;;;;;;19.05;43.20;101683.38;16126193;19;130555;-44
2023/01/06 14:43:32;;;;;;;2.42;0.75;;;;;;;19.04;42.96;101669.75;16128988;19;130224;-46
2023/01/06 14:49:00;;;;;;;2.15;0.55;;;;;;;19.00;43.48;101680.44;16128130;19;129867;-45
2023/01/06 14:54:29;;;;;;;2.55;0.70;;;;;;;19.00;43.52;101679.63;16124846;19;129898;-45
2023/01/06 15:00:11;;;;;;;1.95;0.68;;;;;;;18.97;43.20;101677.28;16125072;19;129518;-44
2023/01/06 15:05:36;;;;;;;2.65;0.50;;;;;;;18.94;43.37;101683.28;16125089;19;129325;-45
2023/01/06 15:11:11;;;;;;;2.47;0.50;;;;;;;18.93;43.59;101674.16;16120649;19;129611;-45
2023/01/06 15:16:44;;;;;;;6.83;0.50;;;;;;;18.90;43.28;101667.09;16117811;19;130134;-46
2023/01/06 15:22:07;;;;;;;2.22;0.50;;;;;;;18.89;43.28;101672.91;16119382;19;129775;-44
2023/01/06 15:27:29;;;;;;;1.45;0.40;;;;;;;18.87;43.46;101669.50;16121718;19;130019;-46
2023/01/06 15:32:53;;;;;;;2.53;0.65;;;;;;;18.85;43.82;101655.88;16121889;19;129884;-48
2023/01/06 15:38:21;;;;;;;4.25;0.82;;;;;;;18.85;43.98;101677.19;16120889;19;129061;-44
2023/01/06 15:43:46;;;;;;;2.67;0.60;;;;;;;18.83;43.67;101666.34;16124670;19;129581;-45
2023/01/06 15:49:34;;;;;;;9.73;0.75;;;;;;;18.84;43.79;101659.72;16121541;19;129511;-52
2023/01/06 15:54:59;;;;;;;12.13;0.73;;;;;;;18.79;44.11;101667.88;16124165;19;129298;-45
2023/01/06 16:00:24;;;;;;;3.78;0.70;;;;;;;18.86;44.60;101673.34;16123435;19;130165;-45
2023/01/06 16:05:47;;;;;;;5.55;0.60;;;;;;;19.11;44.37;101666.88;16119107;19;130694;-44
2023/01/06 16:11:16;;;;;;;7.53;0.90;;;;;;;19.50;43.61;101656.41;16122800;19;129533;-45
2023/01/06 16:16:39;;;;;;;6.80;1.05;;;;;;;19.90;43.32;101666.94;16120649;19;130360;-44
2023/01/06 16:22:07;;;;;;;5.72;0.57;;;;;;;20.26;42.62;101650.34;16123797;19;130043;-44
2023/01/06 16:27:29;;;;;;;10.57;0.73;;;;;;;20.54;42.19;101644.09;16119558;19;131295;-45
2023/01/06 16:32:55;;;;;;;9.55;1.35;;;;;;;20.67;42.32;101650.50;16122126;19;132962;-48
2023/01/06 16:38:17;;;;;;;8.77;0.90;;;;;;;20.64;42.28;101645.41;16121353;19;129598;-47
2023/01/06 16:43:38;;;;;;;4.60;0.90;;;;;;;20.59;42.22;101646.16;16119051;19;129852;-47
2023/01/06 16:49:07;;;;;;;5.18;1.20;;;;;;;20.50;42.15;101637.31;16116979;19;131414;-44
2023/01/06 16:54:29;;;;;;;17.35;1.50;;;;;;;20.38;42.27;101633.69;16118023;19;129485;-45
2023/01/06 16:59:51;;;;;;;12.20;1.30;;;;;;;20.28;42.48;101642.63;16117268;19;129849;-45
2023/01/06 17:05:18;;;;;;;8.52;1.20;;;;;;;20.20;42.17;101643.00;16134109;19;131412;-45
2023/01/06 17:10:41;;;;;;;3.70;0.90;;;;;;;20.09;42.44;101645.50;16132765;19;129973;-45
2023/01/06 17:16:09;;;;;;;11.63;1.02;;;;;;;20.01;42.44;101640.28;16131725;19;130663;-45
2023/01/06 17:21:38;;;;;;;11.35;0.95;;;;;;;19.93;42.95;101640.59;16132941;19;129363;-45
2023/01/06 17:27:06;;;;;;;6.60;1.00;;;;;;;19.84;43.09;101648.44;16131816;19;128864;-47
2023/01/06 17:32:36;;;;;;;5.65;1.00;;;;;;;19.86;43.51;101634.31;16131412;19;129809;-45
2023/01/06 17:38:01;;;;;;;2.60;0.73;;;;;;;19.94;43.02;101628.41;16132651;19;130086;-45
2023/01/06 17:43:30;;;;;;;5.90;1.13;;;;;;;20.08;43.39;101640.19;16129052;19;130668;-44
2023/01/06 17:49:07;;;;;;;4.68;1.08;;;;;;;20.28;42.82;101629.59;16132265;19;129597;-46
2023/01/06 18:00:20;;;;;;;9.32;1.52;;;;;;;20.89;42.85;101634.91;16130764;19;129591;-44
2023/01/06 18:05:47;;;;;;;10.20;0.80;;;;;;;21.16;42.53;101639.94;16131556;19;129393;-46
2023/01/06 18:11:09;;;;;;;11.02;0.98;;;;;;;21.37;42.33;101630.03;16130829;19;129783;-49
2023/01/06 18:16:34;;;;;;;7.68;1.30;;;;;;;21.51;41.78;101625.06;16128702;19;129493;-48
2023/01/06 18:21:56;;;;;;;6.10;0.77;;;;;;;21.61;41.66;101629.13;16128235;19;130000;-46
2023/01/06 18:27:23;;;;;;;6.68;0.88;;;;;;;21.67;41.47;101636.47;16128113;19;130127;-46
2023/01/06 18:32:45;;;;;;;7.80;1.00;;;;;;;21.78;41.21;101640.28;16128718;19;133403;-45
2023/01/06 18:38:07;;;;;;;4.47;0.80;;;;;;;21.90;41.31;101637.47;16126491;19;129043;-45
2023/01/06 18:43:29;;;;;;;7.95;1.05;;;;;;;22.04;41.00;101636.00;16124223;19;129953;-47
2023/01/06 18:48:53;;;;;;;11.25;1.58;;;;;;;22.09;40.88;101629.72;16129384;19;129969;-46
2023/01/06 18:54:18;;;;;;;12.80;1.27;;;;;;;22.11;40.78;101639.50;16124983;19;130032;-45
2023/01/06 18:59:40;;;;;;;10.07;1.20;;;;;;;22.10;41.32;101643.38;16125237;19;130784;-44
2023/01/06 19:05:09;;;;;;;9.90;0.80;;;;;;;22.09;41.07;101647.25;16127188;19;130119;-46
2023/01/06 19:10:31;;;;;;;4.05;0.80;;;;;;;22.05;41.37;101650.81;16125189;19;129952;-50
2023/01/06 19:16:00;;;;;;;8.52;1.15;;;;;;;21.99;41.52;101644.31;16123905;19;130099;-46
2023/01/06 19:21:22;;;;;;;5.25;0.65;;;;;;;21.94;41.01;101642.28;16119278;19;129450;-46
2023/01/06 19:26:44;;;;;;;7.80;1.00;;;;;;;21.88;41.37;101654.41;16117664;19;130186;-50
2023/01/06 19:32:12;;;;;;;6.53;0.70;;;;;;;21.85;41.33;101652.13;16119835;19;130149;-47
2023/01/06 19:37:34;;;;;;;13.10;1.00;;;;;;;21.76;41.61;101660.06;16120852;19;131424;-46
2023/01/06 19:43:17;;;;;;;11.50;1.20;;;;;;;21.72;41.11;101653.28;16123643;19;130017;-45
2023/01/06 19:48:40;;;;;;;13.98;1.10;;;;;;;21.66;41.49;101640.38;16119908;19;130819;-44
2023/01/06 19:54:11;;;;;;;8.75;1.35;;;;;;;21.62;41.54;101636.38;16123776;19;129230;-44
2023/01/06 19:59:34;;;;;;;5.35;0.77;;;;;;;21.56;41.55;101637.38;16120762;19;129412;-45
2023/01/06 20:04:56;;;;;;;5.18;0.60;;;;;;;21.51;41.79;101625.06;16120447;19;129722;-48
2023/01/06 20:10:19;;;;;;;4.57;0.50;;;;;;;21.55;41.50;101618.97;16115791;19;130259;-45
2023/01/06 20:15:41;;;;;;;14.48;1.13;;;;;;;21.58;41.68;101613.78;16117259;19;129814;-45
2023/01/06 20:21:03;;;;;;;30.80;3.22;;;;;;;21.64;41.26;101623.06;16118268;19;130147;-45
2023/01/06 20:26:25;;;;;;;31.58;2.05;;;;;;;21.78;41.42;101618.03;16116351;19;131422;-46
2023/01/06 20:31:47;;;;;;;33.17;2.75;;;;;;;21.92;41.61;101610.16;16117155;19;129486;-45
2023/01/06 20:37:08;;;;;;;19.23;2.17;;;;;;;22.05;41.84;101606.22;16133882;19;130525;-47
2023/01/06 20:42:30;;;;;;;29.15;2.35;;;;;;;22.17;41.86;101606.97;16149000;19;131101;-47
2023/01/06 20:47:52;;;;;;;23.75;1.70;;;;;;;22.28;41.80;101610.78;16151169;19;129715;-45
2023/01/06 20:53:14;;;;;;;23.02;1.50;;;;;;;22.39;41.58;101614.59;16150114;19;130579;-46
2023/01/06 20:58:35;;;;;;;17.38;1.80;;;;;;;22.42;41.72;101614.91;16146485;19;130871;-46
2023/01/06 21:03:58;;;;;;;10.98;1.27;;;;;;;22.40;41.85;101619.06;16148137;19;129939;-44
2023/01/06 21:09:20;;;;;;;17.20;1.30;;;;;;;22.32;42.02;101616.72;16148416;19;129520;-43
2023/01/06 21:14:41;;;;;;;12.13;1.45;;;;;;;22.22;42.26;101606.25;16147424;19;129034;-44
2023/01/06 21:20:05;;;;;;;10.32;1.20;;;;;;;22.12;42.16;101618.03;16144234;19;130173;-44
2023/01/06 21:25:26;;;;;;;14.80;1.25;;;;;;;22.02;42.17;101610.38;16143962;19;130976;-45
2023/01/06 21:30:48;;;;;;;15.13;1.40;;;;;;;21.91;42.66;101612.13;16141101;19;130112;-45
2023/01/06 21:36:10;;;;;;;14.50;1.08;;;;;;;21.82;42.61;101606.13;16146061;19;130745;-44
2023/01/06 21:47:14;;;;;;;11.35;1.08;;;;;;;21.67;43.11;101605.84;16137296;19;129582;-44
2023/01/06 21:52:36;;;;;;;4.88;1.10;;;;;;;21.62;43.04;101608.56;16127052;19;130236;-45
2023/01/06 21:57:58;;;;;;;16.83;0.90;;;;;;;21.56;43.10;101601.19;16129622;19;129425;-43
2023/01/06 22:03:20;;;;;;;10.63;0.90;;;;;;;21.50;43.03;101595.53;16126115;19;131012;-49
2023/01/06 22:08:42;;;;;;;9.57;0.73;;;;;;;21.40;43.34;101597.25;16129713;19;129608;-48
2023/01/06 22:14:04;;;;;;;9.45;0.90;;;;;;;21.28;43.18;101587.00;16131826;19;130627;-46
2023/01/06 22:19:28;;;;;;;5.47;0.70;;;;;;;21.18;43.32;101582.06;16128771;19;129639;-47
2023/01/06 22:24:53;;;;;;;6.38;0.80;;;;;;;21.04;43.27;101581.53;16125389;19;133227;-45
2023/01/06 22:30:14;;;;;;;10.27;1.33;;;;;;;20.93;43.09;101593.53;16130334;19;129551;-47
2023/01/06 22:35:36;;;;;;;12.05;1.23;;;;;;;20.85;43.15;101585.59;16128632;19;129427;-46
2023/01/06 22:40:58;;;;;;;11.68;1.25;;;;;;;20.75;43.31;101567.56;16124776;19;130291;-46
2023/01/06 22:46:20;;;;;;;6.28;0.70;;;;;;;20.69;43.33;101568.53;16128923;19;130095;-45
2023/01/06 22:51:42;;;;;;;6.35;0.77;;;;;;;20.63;43.36;101574.22;16128759;19;129532;-46
2023/01/06 22:57:04;;;;;;;3.42;0.75;;;;;;;20.55;43.20;101567.97;16126730;19;129579;-48
2023/01/06 23:02:26;;;;;;;4.75;0.73;;;;;;;20.51;42.99;101574.22;16125425;19;129336;-44
2023/01/06 23:07:48;;;;;;;5.05;0.70;;;;;;;20.47;43.22;101575.81;16127535;19;130298;-46
2023/01/06 23:13:09;;;;;;;7.05;1.70;;;;;;;20.42;43.35;101568.22;16129602;19;130712;-45
2023/01/06 23:18:34;;;;;;;4.22;0.60;;;;;;;20.37;43.43;101580.03;16126855;19;129671;-49
2023/01/06 23:23:56;;;;;;;3.80;0.50;;;;;;;20.34;43.35;101572.22;16128489;19;130224;-47
2023/01/06 23:29:17;;;;;;;5.53;0.82;;;;;;;20.31;43.29;101582.97;16127436;19;129516;-48
2023/01/06 23:34:39;;;;;;;2.80;0.50;;;;;;;20.26;43.11;101573.41;16124978;19;128907;-45
2023/01/06 23:40:01;;;;;;;3.40;0.65;;;;;;;20.22;43.05;101565.81;16127852;19;130005;-46
2023/01/06 23:45:23;;;;;;;3.92;0.50;;;;;;;20.18;43.26;101573.78;16125343;19;129743;-50
2023/01/06 23:50:49;;;;;;;2.80;0.50;;;;;;;20.15;43.54;101565.94;16127032;19;129470;-47
2023/01/06 23:56:22;;;;;;;2.63;0.50;;;;;;;20.13;43.50;101565.31;16122689;19;130182;-46
